Terminal Aerodrome Forecast
Issued by NWS Dallas/Fort Worth, TX

Home | Current Version | Previous Version | Text Only | Print | Product List | Glossary On
Versions: 1 2 3 4 5 6 7 8 9 10 11 12 13 14 15 16 17 18 19 20 21 22 23 24 25 26 27 28 29 30 31 32 33
000
FTUS44 KFWD 231952 AAA
TAFDFW
TAF AMD
KDFW 231952Z 2320/2424 33015KT P6SM VCSH SCT035 BKN060
      TEMPO 2320/2324 5SM -SHRA BKN035
     FM240100 34015KT P6SM SCT050 BKN100
     FM240300 32010KT P6SM SCT250
     FM241500 34016KT P6SM SCT250=

USA.gov is the U.S. government's official web portal to all federal, state and local government web resources and services.